Furn ash Shubbak, Lebanon
Current Conditions -  °F | °C
As of 12:00 PM on Wednesday 22 Oct 2014 (Local Time) from OLBA Reporting Station
Few Clouds Few Clouds  
Wind Chill: 77°   Ceiling: Unl
Heat Index: 78°   Visibility: 5mi
Dew Point: 50°   Wind: 7mph
Humidity: 39%   Direction: 320°NW
Pressure: 30.06"   Gusts: NA
Location:  33.87°N, 35.52°E
Report Text: OLBA 220900Z 32006KT 8000 FEW070 25/10 Q1018
Loading
Personal Weather Stations






























Interactive Weather Map
Tropical Storm Tracking
New forecast layout! Learn more

10-Day Weather Forecast

Advertisements
Track Severe Weather on mobile